sensor_id;sensor_type;location;lat;lon;timestamp;temperature;humidity
74923;HTU21D;64715;44.760;37.678;2024-03-07T00:00:10;6.07;74.37
74923;HTU21D;64715;44.760;37.678;2024-03-07T00:01:18;6.05;74.56
74923;HTU21D;64715;44.760;37.678;2024-03-07T00:02:21;6.08;74.67
74923;HTU21D;64715;44.760;37.678;2024-03-07T00:03:22;6.08;74.55
74923;HTU21D;64715;44.760;37.678;2024-03-07T00:04:25;6.09;74.60
74923;HTU21D;64715;44.760;37.678;2024-03-07T00:05:26;6.09;74.52
74923;HTU21D;64715;44.760;37.678;2024-03-07T00:06:27;6.09;74.44
74923;HTU21D;64715;44.760;37.678;2024-03-07T00:07:28;6.08;74.55
74923;HTU21D;64715;44.760;37.678;2024-03-07T00:08:29;6.07;74.64
74923;HTU21D;64715;44.760;37.678;2024-03-07T00:09:34;6.09;74.45
74923;HTU21D;64715;44.760;37.678;2024-03-07T00:10:35;6.08;74.61
74923;HTU21D;64715;44.760;37.678;2024-03-07T00:11:37;6.07;74.58
74923;HTU21D;64715;44.760;37.678;2024-03-07T00:12:39;6.06;74.60
74923;HTU21D;64715;44.760;37.678;2024-03-07T00:13:43;6.01;74.74
74923;HTU21D;64715;44.760;37.678;2024-03-07T00:14:44;6.01;74.72
74923;HTU21D;64715;44.760;37.678;2024-03-07T00:15:45;6.01;74.60
74923;HTU21D;64715;44.760;37.678;2024-03-07T00:16:46;6.00;74.80
74923;HTU21D;64715;44.760;37.678;2024-03-07T00:17:47;6.01;74.71
74923;HTU21D;64715;44.760;37.678;2024-03-07T00:18:49;6.00;74.72
74923;HTU21D;64715;44.760;37.678;2024-03-07T00:19:50;6.00;74.64
74923;HTU21D;64715;44.760;37.678;2024-03-07T00:20:51;5.99;74.82
74923;HTU21D;64715;44.760;37.678;2024-03-07T00:21:53;5.98;74.77
74923;HTU21D;64715;44.760;37.678;2024-03-07T00:22:54;5.97;74.72
74923;HTU21D;64715;44.760;37.678;2024-03-07T00:23:55;5.95;74.93
74923;HTU21D;64715;44.760;37.678;2024-03-07T00:24:57;5.93;74.77
74923;HTU21D;64715;44.760;37.678;2024-03-07T00:25:57;5.92;75.06
74923;HTU21D;64715;44.760;37.678;2024-03-07T00:26:58;5.90;75.01
74923;HTU21D;64715;44.760;37.678;2024-03-07T00:27:59;5.89;74.91
74923;HTU21D;64715;44.760;37.678;2024-03-07T00:29:03;5.87;75.00
74923;HTU21D;64715;44.760;37.678;2024-03-07T00:30:05;5.84;75.21
74923;HTU21D;64715;44.760;37.678;2024-03-07T00:31:09;5.83;75.02
74923;HTU21D;64715;44.760;37.678;2024-03-07T00:32:10;5.82;75.12
74923;HTU21D;64715;44.760;37.678;2024-03-07T00:33:12;5.80;74.99
74923;HTU21D;64715;44.760;37.678;2024-03-07T00:34:13;5.79;75.14
74923;HTU21D;64715;44.760;37.678;2024-03-07T00:35:19;5.77;75.09
74923;HTU21D;64715;44.760;37.678;2024-03-07T00:36:21;5.76;75.08
74923;HTU21D;64715;44.760;37.678;2024-03-07T00:37:22;5.75;74.93
74923;HTU21D;64715;44.760;37.678;2024-03-07T00:38:25;5.72;75.11
74923;HTU21D;64715;44.760;37.678;2024-03-07T00:39:26;5.71;75.21
74923;HTU21D;64715;44.760;37.678;2024-03-07T00:40:27;5.70;75.05
74923;HTU21D;64715;44.760;37.678;2024-03-07T00:41:28;5.69;74.82
74923;HTU21D;64715;44.760;37.678;2024-03-07T00:42:29;5.68;75.20
74923;HTU21D;64715;44.760;37.678;2024-03-07T00:43:30;5.67;75.23
74923;HTU21D;64715;44.760;37.678;2024-03-07T00:44:31;5.65;75.36
74923;HTU21D;64715;44.760;37.678;2024-03-07T00:45:32;5.64;75.25
74923;HTU21D;64715;44.760;37.678;2024-03-07T00:46:33;5.63;75.28
74923;HTU21D;64715;44.760;37.678;2024-03-07T00:47:34;5.62;75.38
74923;HTU21D;64715;44.760;37.678;2024-03-07T00:48:35;5.60;75.29
74923;HTU21D;64715;44.760;37.678;2024-03-07T00:49:36;5.57;75.30
74923;HTU21D;64715;44.760;37.678;2024-03-07T00:50:37;5.57;75.25
74923;HTU21D;64715;44.760;37.678;2024-03-07T00:51:38;5.56;75.31
74923;HTU21D;64715;44.760;37.678;2024-03-07T00:52:40;5.55;75.57
74923;HTU21D;64715;44.760;37.678;2024-03-07T00:53:41;5.54;75.43
74923;HTU21D;64715;44.760;37.678;2024-03-07T00:54:42;5.54;75.55
74923;HTU21D;64715;44.760;37.678;2024-03-07T00:55:43;5.55;75.35
74923;HTU21D;64715;44.760;37.678;2024-03-07T00:56:44;5.53;75.67
74923;HTU21D;64715;44.760;37.678;2024-03-07T00:57:45;5.52;75.63
74923;HTU21D;64715;44.760;37.678;2024-03-07T00:58:50;5.49;75.51
74923;HTU21D;64715;44.760;37.678;2024-03-07T00:59:51;5.50;75.67
74923;HTU21D;64715;44.760;37.678;2024-03-07T01:00:52;5.48;75.60
74923;HTU21D;64715;44.760;37.678;2024-03-07T01:01:53;5.49;75.69
74923;HTU21D;64715;44.760;37.678;2024-03-07T01:02:54;5.49;75.61
74923;HTU21D;64715;44.760;37.678;2024-03-07T01:03:57;5.51;75.41
74923;HTU21D;64715;44.760;37.678;2024-03-07T01:04:58;5.50;75.73
74923;HTU21D;64715;44.760;37.678;2024-03-07T01:05:59;5.50;75.67
74923;HTU21D;64715;44.760;37.678;2024-03-07T01:07:01;5.49;75.45
74923;HTU21D;64715;44.760;37.678;2024-03-07T01:08:02;5.49;75.60
74923;HTU21D;64715;44.760;37.678;2024-03-07T01:09:03;5.49;75.60
74923;HTU21D;64715;44.760;37.678;2024-03-07T01:10:05;5.47;75.62
74923;HTU21D;64715;44.760;37.678;2024-03-07T01:11:06;5.48;75.79
74923;HTU21D;64715;44.760;37.678;2024-03-07T01:12:10;5.49;75.71
74923;HTU21D;64715;44.760;37.678;2024-03-07T01:13:11;5.49;75.54
74923;HTU21D;64715;44.760;37.678;2024-03-07T01:14:19;5.49;75.54
74923;HTU21D;64715;44.760;37.678;2024-03-07T01:15:20;5.50;75.43
74923;HTU21D;64715;44.760;37.678;2024-03-07T01:16:22;5.49;75.70
74923;HTU21D;64715;44.760;37.678;2024-03-07T01:17:23;5.51;75.52
74923;HTU21D;64715;44.760;37.678;2024-03-07T01:18:25;5.50;75.80
74923;HTU21D;64715;44.760;37.678;2024-03-07T01:19:26;5.49;75.65
74923;HTU21D;64715;44.760;37.678;2024-03-07T01:20:27;5.49;75.70
74923;HTU21D;64715;44.760;37.678;2024-03-07T01:21:28;5.48;75.74
74923;HTU21D;64715;44.760;37.678;2024-03-07T01:22:29;5.48;75.61
74923;HTU21D;64715;44.760;37.678;2024-03-07T01:23:31;5.49;75.64
74923;HTU21D;64715;44.760;37.678;2024-03-07T01:24:32;5.49;75.75
74923;HTU21D;64715;44.760;37.678;2024-03-07T01:25:34;5.49;75.81
74923;HTU21D;64715;44.760;37.678;2024-03-07T01:26:35;5.49;75.73
74923;HTU21D;64715;44.760;37.678;2024-03-07T01:27:36;5.50;75.59
74923;HTU21D;64715;44.760;37.678;2024-03-07T01:28:37;5.50;75.63
74923;HTU21D;64715;44.760;37.678;2024-03-07T01:29:38;5.50;75.65
74923;HTU21D;64715;44.760;37.678;2024-03-07T01:30:42;5.49;75.72
74923;HTU21D;64715;44.760;37.678;2024-03-07T01:31:43;5.49;75.68
74923;HTU21D;64715;44.760;37.678;2024-03-07T01:32:44;5.50;75.57
74923;HTU21D;64715;44.760;37.678;2024-03-07T01:33:45;5.51;75.69
74923;HTU21D;64715;44.760;37.678;2024-03-07T01:34:45;5.51;75.72
74923;HTU21D;64715;44.760;37.678;2024-03-07T01:35:46;5.52;75.76
74923;HTU21D;64715;44.760;37.678;2024-03-07T01:36:47;5.51;75.48
74923;HTU21D;64715;44.760;37.678;2024-03-07T01:37:49;5.49;75.43
74923;HTU21D;64715;44.760;37.678;2024-03-07T01:38:50;5.50;75.66
74923;HTU21D;64715;44.760;37.678;2024-03-07T01:39:52;5.50;75.52
74923;HTU21D;64715;44.760;37.678;2024-03-07T01:40:53;5.50;75.81
74923;HTU21D;64715;44.760;37.678;2024-03-07T01:41:55;5.50;75.62
74923;HTU21D;64715;44.760;37.678;2024-03-07T01:42:56;5.50;75.67
74923;HTU21D;64715;44.760;37.678;2024-03-07T01:43:57;5.52;75.67
74923;HTU21D;64715;44.760;37.678;2024-03-07T01:44:58;5.50;75.60
74923;HTU21D;64715;44.760;37.678;2024-03-07T01:45:59;5.51;75.57
74923;HTU21D;64715;44.760;37.678;2024-03-07T01:47:00;5.52;75.50
74923;HTU21D;64715;44.760;37.678;2024-03-07T01:48:09;5.53;75.51
74923;HTU21D;64715;44.760;37.678;2024-03-07T01:49:12;5.52;75.47
74923;HTU21D;64715;44.760;37.678;2024-03-07T01:50:14;5.52;75.53
74923;HTU21D;64715;44.760;37.678;2024-03-07T01:51:16;5.52;75.44
74923;HTU21D;64715;44.760;37.678;2024-03-07T01:52:17;5.52;75.42
74923;HTU21D;64715;44.760;37.678;2024-03-07T01:53:18;5.53;75.81
74923;HTU21D;64715;44.760;37.678;2024-03-07T01:54:19;5.54;75.53
74923;HTU21D;64715;44.760;37.678;2024-03-07T01:55:21;5.53;75.50
74923;HTU21D;64715;44.760;37.678;2024-03-07T01:56:23;5.54;75.38
74923;HTU21D;64715;44.760;37.678;2024-03-07T01:57:24;5.55;75.38
74923;HTU21D;64715;44.760;37.678;2024-03-07T01:58:26;5.56;75.50
74923;HTU21D;64715;44.760;37.678;2024-03-07T01:59:28;5.56;75.44
74923;HTU21D;64715;44.760;37.678;2024-03-07T02:00:30;5.57;75.47
74923;HTU21D;64715;44.760;37.678;2024-03-07T02:01:32;5.59;75.67
74923;HTU21D;64715;44.760;37.678;2024-03-07T02:02:34;5.57;75.35
74923;HTU21D;64715;44.760;37.678;2024-03-07T02:03:35;5.60;75.47
74923;HTU21D;64715;44.760;37.678;2024-03-07T02:04:37;5.60;75.47
74923;HTU21D;64715;44.760;37.678;2024-03-07T02:05:38;5.62;75.60
74923;HTU21D;64715;44.760;37.678;2024-03-07T02:06:38;5.62;75.47
74923;HTU21D;64715;44.760;37.678;2024-03-07T02:07:39;5.63;75.47
74923;HTU21D;64715;44.760;37.678;2024-03-07T02:08:40;5.63;75.44
74923;HTU21D;64715;44.760;37.678;2024-03-07T02:09:41;5.65;75.30
74923;HTU21D;64715;44.760;37.678;2024-03-07T02:10:42;5.65;75.38
74923;HTU21D;64715;44.760;37.678;2024-03-07T02:11:43;5.64;75.58
74923;HTU21D;64715;44.760;37.678;2024-03-07T02:12:44;5.65;75.42
74923;HTU21D;64715;44.760;37.678;2024-03-07T02:13:45;5.65;75.52
74923;HTU21D;64715;44.760;37.678;2024-03-07T02:14:47;5.64;75.44
74923;HTU21D;64715;44.760;37.678;2024-03-07T02:15:48;5.64;75.38
74923;HTU21D;64715;44.760;37.678;2024-03-07T02:16:49;5.62;75.37
74923;HTU21D;64715;44.760;37.678;2024-03-07T02:17:50;5.62;75.59
74923;HTU21D;64715;44.760;37.678;2024-03-07T02:18:51;5.61;75.56
74923;HTU21D;64715;44.760;37.678;2024-03-07T02:19:52;5.60;75.55
74923;HTU21D;64715;44.760;37.678;2024-03-07T02:20:53;5.60;75.83
74923;HTU21D;64715;44.760;37.678;2024-03-07T02:21:55;5.57;75.84
74923;HTU21D;64715;44.760;37.678;2024-03-07T02:22:56;5.57;75.70
74923;HTU21D;64715;44.760;37.678;2024-03-07T02:23:57;5.57;75.83
74923;HTU21D;64715;44.760;37.678;2024-03-07T02:24:58;5.57;75.95
74923;HTU21D;64715;44.760;37.678;2024-03-07T02:25:59;5.56;75.86
74923;HTU21D;64715;44.760;37.678;2024-03-07T02:27:00;5.56;75.97
74923;HTU21D;64715;44.760;37.678;2024-03-07T02:28:01;5.57;75.68
74923;HTU21D;64715;44.760;37.678;2024-03-07T02:29:05;5.56;75.81
74923;HTU21D;64715;44.760;37.678;2024-03-07T02:30:06;5.57;75.89
74923;HTU21D;64715;44.760;37.678;2024-03-07T02:31:08;5.56;75.73
74923;HTU21D;64715;44.760;37.678;2024-03-07T02:32:09;5.59;75.72
74923;HTU21D;64715;44.760;37.678;2024-03-07T02:33:10;5.59;75.83
74923;HTU21D;64715;44.760;37.678;2024-03-07T02:34:12;5.61;75.72
74923;HTU21D;64715;44.760;37.678;2024-03-07T02:35:13;5.62;75.61
74923;HTU21D;64715;44.760;37.678;2024-03-07T02:36:16;5.62;75.88
74923;HTU21D;64715;44.760;37.678;2024-03-07T02:37:17;5.63;75.72
74923;HTU21D;64715;44.760;37.678;2024-03-07T02:38:19;5.64;75.71
74923;HTU21D;64715;44.760;37.678;2024-03-07T02:39:20;5.66;75.76
74923;HTU21D;64715;44.760;37.678;2024-03-07T02:40:21;5.67;75.50
74923;HTU21D;64715;44.760;37.678;2024-03-07T02:41:22;5.69;75.47
74923;HTU21D;64715;44.760;37.678;2024-03-07T02:42:24;5.69;75.47
74923;HTU21D;64715;44.760;37.678;2024-03-07T02:43:25;5.70;75.56
74923;HTU21D;64715;44.760;37.678;2024-03-07T02:44:26;5.68;75.70
74923;HTU21D;64715;44.760;37.678;2024-03-07T02:45:27;5.68;75.60
74923;HTU21D;64715;44.760;37.678;2024-03-07T02:46:28;5.68;75.70
74923;HTU21D;64715;44.760;37.678;2024-03-07T02:47:29;5.66;75.61
74923;HTU21D;64715;44.760;37.678;2024-03-07T02:48:30;5.68;75.63
74923;HTU21D;64715;44.760;37.678;2024-03-07T02:49:31;5.66;75.55
74923;HTU21D;64715;44.760;37.678;2024-03-07T02:50:32;5.65;75.55
74923;HTU21D;64715;44.760;37.678;2024-03-07T02:51:33;5.63;75.68
74923;HTU21D;64715;44.760;37.678;2024-03-07T02:52:34;5.65;75.65
74923;HTU21D;64715;44.760;37.678;2024-03-07T02:53:35;5.65;75.66
74923;HTU21D;64715;44.760;37.678;2024-03-07T02:54:36;5.65;75.68
74923;HTU21D;64715;44.760;37.678;2024-03-07T02:55:37;5.63;75.86
74923;HTU21D;64715;44.760;37.678;2024-03-07T02:56:38;5.61;75.72
74923;HTU21D;64715;44.760;37.678;2024-03-07T02:57:39;5.61;75.72
74923;HTU21D;64715;44.760;37.678;2024-03-07T02:58:40;5.60;75.67
74923;HTU21D;64715;44.760;37.678;2024-03-07T02:59:42;5.60;75.60
74923;HTU21D;64715;44.760;37.678;2024-03-07T03:00:43;5.56;75.65
74923;HTU21D;64715;44.760;37.678;2024-03-07T03:01:44;5.57;75.90
74923;HTU21D;64715;44.760;37.678;2024-03-07T03:02:46;5.55;75.77
74923;HTU21D;64715;44.760;37.678;2024-03-07T03:03:48;5.55;75.85
74923;HTU21D;64715;44.760;37.678;2024-03-07T03:04:49;5.54;75.64
74923;HTU21D;64715;44.760;37.678;2024-03-07T03:05:50;5.53;76.01
74923;HTU21D;64715;44.760;37.678;2024-03-07T03:06:51;5.51;75.95
74923;HTU21D;64715;44.760;37.678;2024-03-07T03:07:52;5.49;75.89
74923;HTU21D;64715;44.760;37.678;2024-03-07T03:08:56;5.49;75.92
74923;HTU21D;64715;44.760;37.678;2024-03-07T03:09:56;5.47;75.90
74923;HTU21D;64715;44.760;37.678;2024-03-07T03:10:57;5.46;76.03
74923;HTU21D;64715;44.760;37.678;2024-03-07T03:11:59;5.45;75.95
74923;HTU21D;64715;44.760;37.678;2024-03-07T03:13:00;5.45;76.22
74923;HTU21D;64715;44.760;37.678;2024-03-07T03:14:01;5.45;75.89
74923;HTU21D;64715;44.760;37.678;2024-03-07T03:15:03;5.45;75.91
74923;HTU21D;64715;44.760;37.678;2024-03-07T03:16:05;5.42;75.93
74923;HTU21D;64715;44.760;37.678;2024-03-07T03:17:10;5.41;76.08
74923;HTU21D;64715;44.760;37.678;2024-03-07T03:18:11;5.42;75.83
74923;HTU21D;64715;44.760;37.678;2024-03-07T03:19:13;5.42;75.97
74923;HTU21D;64715;44.760;37.678;2024-03-07T03:20:14;5.42;75.93
74923;HTU21D;64715;44.760;37.678;2024-03-07T03:21:38;5.41;75.80
74923;HTU21D;64715;44.760;37.678;2024-03-07T03:22:39;5.39;75.86
74923;HTU21D;64715;44.760;37.678;2024-03-07T03:23:40;5.39;75.77
74923;HTU21D;64715;44.760;37.678;2024-03-07T03:24:41;5.37;75.60
74923;HTU21D;64715;44.760;37.678;2024-03-07T03:25:42;5.35;75.64
74923;HTU21D;64715;44.760;37.678;2024-03-07T03:26:44;5.36;75.79
74923;HTU21D;64715;44.760;37.678;2024-03-07T03:27:44;5.35;75.78
74923;HTU21D;64715;44.760;37.678;2024-03-07T03:28:45;5.32;75.77
74923;HTU21D;64715;44.760;37.678;2024-03-07T03:29:47;5.30;75.83
74923;HTU21D;64715;44.760;37.678;2024-03-07T03:30:49;5.28;75.70
74923;HTU21D;64715;44.760;37.678;2024-03-07T03:31:55;5.28;75.73
74923;HTU21D;64715;44.760;37.678;2024-03-07T03:32:56;5.26;75.78
74923;HTU21D;64715;44.760;37.678;2024-03-07T03:33:57;5.25;75.76
74923;HTU21D;64715;44.760;37.678;2024-03-07T03:34:58;5.23;75.60
74923;HTU21D;64715;44.760;37.678;2024-03-07T03:35:59;5.22;75.86
74923;HTU21D;64715;44.760;37.678;2024-03-07T03:36:59;5.17;75.62
74923;HTU21D;64715;44.760;37.678;2024-03-07T03:38:00;5.15;75.63
74923;HTU21D;64715;44.760;37.678;2024-03-07T03:39:01;5.13;75.67
74923;HTU21D;64715;44.760;37.678;2024-03-07T03:40:03;5.08;75.83
74923;HTU21D;64715;44.760;37.678;2024-03-07T03:41:05;5.10;75.58
74923;HTU21D;64715;44.760;37.678;2024-03-07T03:42:06;5.08;75.58
74923;HTU21D;64715;44.760;37.678;2024-03-07T03:43:07;5.05;75.63
74923;HTU21D;64715;44.760;37.678;2024-03-07T03:44:08;5.06;75.66
74923;HTU21D;64715;44.760;37.678;2024-03-07T03:45:10;5.07;75.59
74923;HTU21D;64715;44.760;37.678;2024-03-07T03:46:16;5.06;75.77
74923;HTU21D;64715;44.760;37.678;2024-03-07T03:47:17;5.05;75.53
74923;HTU21D;64715;44.760;37.678;2024-03-07T03:48:18;5.07;75.61
74923;HTU21D;64715;44.760;37.678;2024-03-07T03:49:19;5.06;75.52
74923;HTU21D;64715;44.760;37.678;2024-03-07T03:50:20;5.04;75.38
74923;HTU21D;64715;44.760;37.678;2024-03-07T03:51:23;5.05;75.65
74923;HTU21D;64715;44.760;37.678;2024-03-07T03:52:25;5.04;75.47
74923;HTU21D;64715;44.760;37.678;2024-03-07T03:53:27;5.03;75.56
74923;HTU21D;64715;44.760;37.678;2024-03-07T03:54:27;5.00;75.53
74923;HTU21D;64715;44.760;37.678;2024-03-07T03:55:29;4.97;75.50
74923;HTU21D;64715;44.760;37.678;2024-03-07T03:56:29;4.96;75.47
74923;HTU21D;64715;44.760;37.678;2024-03-07T03:57:33;4.96;75.43
74923;HTU21D;64715;44.760;37.678;2024-03-07T03:58:34;4.93;75.32
74923;HTU21D;64715;44.760;37.678;2024-03-07T03:59:35;4.90;75.55
74923;HTU21D;64715;44.760;37.678;2024-03-07T04:00:36;4.89;75.51
74923;HTU21D;64715;44.760;37.678;2024-03-07T04:01:36;4.86;75.60
74923;HTU21D;64715;44.760;37.678;2024-03-07T04:02:41;4.81;75.50
74923;HTU21D;64715;44.760;37.678;2024-03-07T04:03:42;4.76;75.40
74923;HTU21D;64715;44.760;37.678;2024-03-07T04:04:47;4.72;75.61
74923;HTU21D;64715;44.760;37.678;2024-03-07T04:05:49;4.69;75.50
74923;HTU21D;64715;44.760;37.678;2024-03-07T04:06:49;4.66;75.56
74923;HTU21D;64715;44.760;37.678;2024-03-07T04:07:50;4.65;75.55
74923;HTU21D;64715;44.760;37.678;2024-03-07T04:08:52;4.62;75.72
74923;HTU21D;64715;44.760;37.678;2024-03-07T04:09:52;4.59;75.69
74923;HTU21D;64715;44.760;37.678;2024-03-07T04:10:53;4.53;75.70
74923;HTU21D;64715;44.760;37.678;2024-03-07T04:11:54;4.48;75.79
74923;HTU21D;64715;44.760;37.678;2024-03-07T04:12:55;4.45;75.83
74923;HTU21D;64715;44.760;37.678;2024-03-07T04:13:56;4.41;75.88
74923;HTU21D;64715;44.760;37.678;2024-03-07T04:14:57;4.39;76.22
74923;HTU21D;64715;44.760;37.678;2024-03-07T04:15:58;4.35;76.10
74923;HTU21D;64715;44.760;37.678;2024-03-07T04:16:59;4.34;76.17
74923;HTU21D;64715;44.760;37.678;2024-03-07T04:18:00;4.33;76.19
74923;HTU21D;64715;44.760;37.678;2024-03-07T04:19:02;4.30;76.19
74923;HTU21D;64715;44.760;37.678;2024-03-07T04:20:05;4.29;76.44
74923;HTU21D;64715;44.760;37.678;2024-03-07T04:21:06;4.27;76.48
74923;HTU21D;64715;44.760;37.678;2024-03-07T04:22:10;4.24;76.65
74923;HTU21D;64715;44.760;37.678;2024-03-07T04:23:11;4.23;76.66
74923;HTU21D;64715;44.760;37.678;2024-03-07T04:24:12;4.22;76.86
74923;HTU21D;64715;44.760;37.678;2024-03-07T04:25:13;4.22;77.12
74923;HTU21D;64715;44.760;37.678;2024-03-07T04:26:15;4.21;77.11
74923;HTU21D;64715;44.760;37.678;2024-03-07T04:27:16;4.22;77.25
74923;HTU21D;64715;44.760;37.678;2024-03-07T04:28:16;4.23;77.64
74923;HTU21D;64715;44.760;37.678;2024-03-07T04:29:17;4.22;77.57
74923;HTU21D;64715;44.760;37.678;2024-03-07T04:30:18;4.23;77.65
74923;HTU21D;64715;44.760;37.678;2024-03-07T04:31:19;4.22;77.79
74923;HTU21D;64715;44.760;37.678;2024-03-07T04:32:21;4.22;77.77
74923;HTU21D;64715;44.760;37.678;2024-03-07T04:33:22;4.20;77.74
74923;HTU21D;64715;44.760;37.678;2024-03-07T04:34:23;4.19;77.69
74923;HTU21D;64715;44.760;37.678;2024-03-07T04:35:24;4.19;77.80
74923;HTU21D;64715;44.760;37.678;2024-03-07T04:36:25;4.17;78.08
74923;HTU21D;64715;44.760;37.678;2024-03-07T04:37:26;4.16;78.02
74923;HTU21D;64715;44.760;37.678;2024-03-07T04:38:28;4.16;78.16
74923;HTU21D;64715;44.760;37.678;2024-03-07T04:39:29;4.15;78.38
74923;HTU21D;64715;44.760;37.678;2024-03-07T04:40:35;4.16;78.37
74923;HTU21D;64715;44.760;37.678;2024-03-07T04:41:36;4.16;78.33
74923;HTU21D;64715;44.760;37.678;2024-03-07T04:42:37;4.18;78.38
74923;HTU21D;64715;44.760;37.678;2024-03-07T04:43:38;4.15;78.41
74923;HTU21D;64715;44.760;37.678;2024-03-07T04:44:39;4.16;78.26
74923;HTU21D;64715;44.760;37.678;2024-03-07T04:45:40;4.13;78.21
74923;HTU21D;64715;44.760;37.678;2024-03-07T04:46:41;4.14;78.22
74923;HTU21D;64715;44.760;37.678;2024-03-07T04:47:45;4.13;78.32
74923;HTU21D;64715;44.760;37.678;2024-03-07T04:48:46;4.15;78.18
74923;HTU21D;64715;44.760;37.678;2024-03-07T04:49:47;4.14;78.29
74923;HTU21D;64715;44.760;37.678;2024-03-07T04:50:49;4.16;78.44
74923;HTU21D;64715;44.760;37.678;2024-03-07T04:51:55;4.18;78.55
74923;HTU21D;64715;44.760;37.678;2024-03-07T04:52:56;4.17;78.59
74923;HTU21D;64715;44.760;37.678;2024-03-07T04:53:57;4.19;78.42
74923;HTU21D;64715;44.760;37.678;2024-03-07T04:54:58;4.16;78.46
74923;HTU21D;64715;44.760;37.678;2024-03-07T04:55:58;4.16;78.57
74923;HTU21D;64715;44.760;37.678;2024-03-07T04:57:00;4.16;78.63
74923;HTU21D;64715;44.760;37.678;2024-03-07T04:58:01;4.17;78.66
74923;HTU21D;64715;44.760;37.678;2024-03-07T04:59:02;4.17;78.87
74923;HTU21D;64715;44.760;37.678;2024-03-07T05:00:03;4.16;78.68
74923;HTU21D;64715;44.760;37.678;2024-03-07T05:01:04;4.15;78.82
74923;HTU21D;64715;44.760;37.678;2024-03-07T05:02:05;4.15;78.75
74923;HTU21D;64715;44.760;37.678;2024-03-07T05:03:06;4.14;78.57
74923;HTU21D;64715;44.760;37.678;2024-03-07T05:04:07;4.12;78.53
74923;HTU21D;64715;44.760;37.678;2024-03-07T05:05:08;4.10;78.50
74923;HTU21D;64715;44.760;37.678;2024-03-07T05:06:09;4.13;78.75
74923;HTU21D;64715;44.760;37.678;2024-03-07T05:07:10;4.13;78.47
74923;HTU21D;64715;44.760;37.678;2024-03-07T05:08:11;4.16;78.65
74923;HTU21D;64715;44.760;37.678;2024-03-07T05:09:12;4.16;78.76
74923;HTU21D;64715;44.760;37.678;2024-03-07T05:10:23;4.16;78.63
74923;HTU21D;64715;44.760;37.678;2024-03-07T05:11:24;4.17;78.61
74923;HTU21D;64715;44.760;37.678;2024-03-07T05:12:26;4.16;78.97
74923;HTU21D;64715;44.760;37.678;2024-03-07T05:13:26;4.18;78.74
74923;HTU21D;64715;44.760;37.678;2024-03-07T05:14:27;4.19;78.66
74923;HTU21D;64715;44.760;37.678;2024-03-07T05:15:28;4.21;78.85
74923;HTU21D;64715;44.760;37.678;2024-03-07T05:16:31;4.20;78.77
74923;HTU21D;64715;44.760;37.678;2024-03-07T05:17:35;4.22;78.86
74923;HTU21D;64715;44.760;37.678;2024-03-07T05:18:38;4.22;78.72
74923;HTU21D;64715;44.760;37.678;2024-03-07T05:19:39;4.20;78.93
74923;HTU21D;64715;44.760;37.678;2024-03-07T05:20:40;4.20;78.97
74923;HTU21D;64715;44.760;37.678;2024-03-07T05:21:41;4.22;79.06
74923;HTU21D;64715;44.760;37.678;2024-03-07T05:22:42;4.22;78.76
74923;HTU21D;64715;44.760;37.678;2024-03-07T05:23:52;4.22;78.92
74923;HTU21D;64715;44.760;37.678;2024-03-07T05:24:53;4.23;78.67
74923;HTU21D;64715;44.760;37.678;2024-03-07T05:25:54;4.22;78.64
74923;HTU21D;64715;44.760;37.678;2024-03-07T05:26:55;4.22;78.66
74923;HTU21D;64715;44.760;37.678;2024-03-07T05:27:57;4.22;78.73
74923;HTU21D;64715;44.760;37.678;2024-03-07T05:28:58;4.23;78.70
74923;HTU21D;64715;44.760;37.678;2024-03-07T05:29:59;4.24;78.59
74923;HTU21D;64715;44.760;37.678;2024-03-07T05:31:00;4.24;78.66
74923;HTU21D;64715;44.760;37.678;2024-03-07T05:32:25;4.27;78.74
74923;HTU21D;64715;44.760;37.678;2024-03-07T05:33:26;4.29;78.67
74923;HTU21D;64715;44.760;37.678;2024-03-07T05:34:28;4.30;78.69
74923;HTU21D;64715;44.760;37.678;2024-03-07T05:35:30;4.32;78.50
74923;HTU21D;64715;44.760;37.678;2024-03-07T05:36:32;4.35;78.42
74923;HTU21D;64715;44.760;37.678;2024-03-07T05:37:33;4.35;78.44
74923;HTU21D;64715;44.760;37.678;2024-03-07T05:38:34;4.39;78.37
74923;HTU21D;64715;44.760;37.678;2024-03-07T05:39:36;4.43;78.60
74923;HTU21D;64715;44.760;37.678;2024-03-07T05:40:37;4.45;78.33
74923;HTU21D;64715;44.760;37.678;2024-03-07T05:41:43;4.47;78.14
74923;HTU21D;64715;44.760;37.678;2024-03-07T05:42:45;4.47;78.18
74923;HTU21D;64715;44.760;37.678;2024-03-07T05:43:46;4.45;78.11
74923;HTU21D;64715;44.760;37.678;2024-03-07T05:44:47;4.45;78.29
74923;HTU21D;64715;44.760;37.678;2024-03-07T05:45:48;4.45;78.17
74923;HTU21D;64715;44.760;37.678;2024-03-07T05:46:49;4.46;78.19
74923;HTU21D;64715;44.760;37.678;2024-03-07T05:47:51;4.48;78.03
74923;HTU21D;64715;44.760;37.678;2024-03-07T05:48:52;4.49;78.11
74923;HTU21D;64715;44.760;37.678;2024-03-07T05:49:56;4.50;77.98
74923;HTU21D;64715;44.760;37.678;2024-03-07T05:50:57;4.53;78.14
74923;HTU21D;64715;44.760;37.678;2024-03-07T05:51:59;4.56;78.13
74923;HTU21D;64715;44.760;37.678;2024-03-07T05:53:00;4.56;77.86
74923;HTU21D;64715;44.760;37.678;2024-03-07T05:54:02;4.57;77.57
74923;HTU21D;64715;44.760;37.678;2024-03-07T05:55:07;4.54;77.97
74923;HTU21D;64715;44.760;37.678;2024-03-07T05:56:08;4.54;77.63
74923;HTU21D;64715;44.760;37.678;2024-03-07T05:57:10;4.54;77.77
74923;HTU21D;64715;44.760;37.678;2024-03-07T05:58:12;4.58;77.70
74923;HTU21D;64715;44.760;37.678;2024-03-07T05:59:13;4.59;77.76
74923;HTU21D;64715;44.760;37.678;2024-03-07T06:00:14;4.59;77.48
74923;HTU21D;64715;44.760;37.678;2024-03-07T06:01:16;4.58;77.63
74923;HTU21D;64715;44.760;37.678;2024-03-07T06:02:19;4.56;77.53
74923;HTU21D;64715;44.760;37.678;2024-03-07T06:03:20;4.56;77.58
74923;HTU21D;64715;44.760;37.678;2024-03-07T06:04:21;4.56;77.46
74923;HTU21D;64715;44.760;37.678;2024-03-07T06:05:22;4.54;77.24
74923;HTU21D;64715;44.760;37.678;2024-03-07T06:06:24;4.52;77.53
74923;HTU21D;64715;44.760;37.678;2024-03-07T06:07:25;4.53;77.40
74923;HTU21D;64715;44.760;37.678;2024-03-07T06:08:26;4.52;77.51
74923;HTU21D;64715;44.760;37.678;2024-03-07T06:09:27;4.51;77.23
74923;HTU21D;64715;44.760;37.678;2024-03-07T06:10:28;4.49;77.06
74923;HTU21D;64715;44.760;37.678;2024-03-07T06:11:29;4.43;77.08
74923;HTU21D;64715;44.760;37.678;2024-03-07T06:12:30;4.41;77.12
74923;HTU21D;64715;44.760;37.678;2024-03-07T06:13:31;4.39;77.20
74923;HTU21D;64715;44.760;37.678;2024-03-07T06:14:32;4.35;77.11
74923;HTU21D;64715;44.760;37.678;2024-03-07T06:15:33;4.33;77.30
74923;HTU21D;64715;44.760;37.678;2024-03-07T06:16:36;4.31;77.33
74923;HTU21D;64715;44.760;37.678;2024-03-07T06:17:38;4.28;77.05
74923;HTU21D;64715;44.760;37.678;2024-03-07T06:18:40;4.23;77.21
74923;HTU21D;64715;44.760;37.678;2024-03-07T06:19:42;4.21;77.21
74923;HTU21D;64715;44.760;37.678;2024-03-07T06:20:43;4.21;77.48
74923;HTU21D;64715;44.760;37.678;2024-03-07T06:21:44;4.22;77.37
74923;HTU21D;64715;44.760;37.678;2024-03-07T06:22:46;4.23;77.39